sensor_id;sensor_type;location;lat;lon;timestamp;pressure;altitude;pressure_sealevel;temperature;humidity
22775;BME280;11554;51.106;3.684;2023-04-19T00:00:01;102486.25;;;8.81;99.78
22775;BME280;11554;51.106;3.684;2023-04-19T00:05:00;102483.84000000001;;;8.79;99.98
22775;BME280;11554;51.106;3.684;2023-04-19T00:10:00;102481.48000000001;;;8.85;100.0
22775;BME280;11554;51.106;3.684;2023-04-19T00:15:00;102478.48;;;8.85;100.0
22775;BME280;11554;51.106;3.684;2023-04-19T00:20:00;102483.39000000001;;;8.76;100.0
22775;BME280;11554;51.106;3.684;2023-04-19T00:25:00;102475.98000000001;;;8.66;100.0
22775;BME280;11554;51.106;3.684;2023-04-19T00:30:00;102475.65999999999;;;8.66;100.0
22775;BME280;11554;51.106;3.684;2023-04-19T00:35:00;102481.52;;;8.63;100.0
22775;BME280;11554;51.106;3.684;2023-04-19T00:40:00;102478.48;;;8.61;100.0
22775;BME280;11554;51.106;3.684;2023-04-19T00:45:00;102482.46999999999;;;8.58;100.0
22775;BME280;11554;51.106;3.684;2023-04-19T00:50:00;102478.09;;;8.52;100.0
22775;BME280;11554;51.106;3.684;2023-04-19T00:55:00;102476.44;;;8.47;100.0
22775;BME280;11554;51.106;3.684;2023-04-19T01:00:00;102474.76999999999;;;8.38;100.0
22775;BME280;11554;51.106;3.684;2023-04-19T01:05:00;102476.72;;;8.37;100.0
22775;BME280;11554;51.106;3.684;2023-04-19T01:10:00;102476.53;;;8.33;100.0
22775;BME280;11554;51.106;3.684;2023-04-19T01:15:00;102475.01;;;8.30;100.0
22775;BME280;11554;51.106;3.684;2023-04-19T01:20:00;102476.28;;;8.26;100.0
22775;BME280;11554;51.106;3.684;2023-04-19T01:25:00;102470.77999999998;;;8.20;100.0
22775;BME280;11554;51.106;3.684;2023-04-19T01:30:00;102471.11;;;8.13;100.0
22775;BME280;11554;51.106;3.684;2023-04-19T01:35:00;102476.88;;;8.13;100.0
22775;BME280;11554;51.106;3.684;2023-04-19T01:40:00;102472.61000000002;;;8.09;100.0
22775;BME280;11554;51.106;3.684;2023-04-19T01:45:00;102473.95;;;8.00;100.0
22775;BME280;11554;51.106;3.684;2023-04-19T01:50:00;102469.71;;;7.98;100.0
22775;BME280;11554;51.106;3.684;2023-04-19T01:55:00;102473.67;;;7.95;100.0
22775;BME280;11554;51.106;3.684;2023-04-19T02:00:00;102473.82;;;7.87;100.0
22775;BME280;11554;51.106;3.684;2023-04-19T02:05:00;102466.87;;;7.79;100.0
22775;BME280;11554;51.106;3.684;2023-04-19T02:10:00;102462.79;;;7.79;100.0
22775;BME280;11554;51.106;3.684;2023-04-19T02:15:00;102458.86;;;7.80;100.0
22775;BME280;11554;51.106;3.684;2023-04-19T02:20:00;102453.29999999999;;;7.84;100.0
22775;BME280;11554;51.106;3.684;2023-04-19T02:25:00;102448.99;;;7.78;100.0
22775;BME280;11554;51.106;3.684;2023-04-19T02:30:00;102444.2;;;7.74;100.0
22775;BME280;11554;51.106;3.684;2023-04-19T02:35:00;102444.03;;;7.68;100.0
22775;BME280;11554;51.106;3.684;2023-04-19T02:40:00;102438.83;;;7.65;100.0
22775;BME280;11554;51.106;3.684;2023-04-19T02:45:00;102440.43999999999;;;7.68;100.0
22775;BME280;11554;51.106;3.684;2023-04-19T02:50:00;102440.76;;;7.68;100.0
22775;BME280;11554;51.106;3.684;2023-04-19T02:55:00;102438.43;;;7.60;100.0
22775;BME280;11554;51.106;3.684;2023-04-19T03:00:00;102436.98999999999;;;7.53;100.0
22775;BME280;11554;51.106;3.684;2023-04-19T03:05:00;102434.14;;;7.44;100.0
22775;BME280;11554;51.106;3.684;2023-04-19T03:10:00;102434.3;;;7.41;100.0
22775;BME280;11554;51.106;3.684;2023-04-19T03:15:00;102434.90999999999;;;7.42;100.0
22775;BME280;11554;51.106;3.684;2023-04-19T03:20:00;102429.96;;;7.49;100.0
22775;BME280;11554;51.106;3.684;2023-04-19T03:25:00;102433.02;;;7.49;100.0
22775;BME280;11554;51.106;3.684;2023-04-19T03:30:00;102433.06;;;7.68;100.0
22775;BME280;11554;51.106;3.684;2023-04-19T03:35:00;102438.76000000001;;;7.81;100.0
22775;BME280;11554;51.106;3.684;2023-04-19T03:40:00;102433.99999999999;;;7.94;100.0
22775;BME280;11554;51.106;3.684;2023-04-19T03:45:00;102434.23;;;8.05;100.0
22775;BME280;11554;51.106;3.684;2023-04-19T03:50:00;102430.24;;;8.08;100.0
22775;BME280;11554;51.106;3.684;2023-04-19T03:55:00;102427.64;;;8.18;100.0
22775;BME280;11554;51.106;3.684;2023-04-19T04:00:00;102428.44;;;8.26;100.0
22775;BME280;11554;51.106;3.684;2023-04-19T04:05:00;102419.59;;;8.32;100.0
22775;BME280;11554;51.106;3.684;2023-04-19T04:10:00;102419.86;;;8.45;100.0
22775;BME280;11554;51.106;3.684;2023-04-19T04:15:00;102422.64;;;8.53;100.0
22775;BME280;11554;51.106;3.684;2023-04-19T04:20:00;102415.03;;;8.61;100.0
22775;BME280;11554;51.106;3.684;2023-04-19T04:25:00;102417.80000000002;;;8.61;100.0
22775;BME280;11554;51.106;3.684;2023-04-19T04:30:00;102417.5;;;8.62;100.0
22775;BME280;11554;51.106;3.684;2023-04-19T04:35:00;102424.31999999999;;;8.61;100.0
22775;BME280;11554;51.106;3.684;2023-04-19T04:40:00;102422.12999999999;;;8.67;100.0
22775;BME280;11554;51.106;3.684;2023-04-19T04:45:00;102427.57999999999;;;8.70;100.0
22775;BME280;11554;51.106;3.684;2023-04-19T04:50:00;102434.01;;;8.82;100.0
22775;BME280;11554;51.106;3.684;2023-04-19T04:55:00;102437.62;;;8.83;100.0
22775;BME280;11554;51.106;3.684;2023-04-19T05:00:00;102438.21;;;8.90;100.0
22775;BME280;11554;51.106;3.684;2023-04-19T05:05:00;102438.4;;;9.00;100.0
22775;BME280;11554;51.106;3.684;2023-04-19T05:10:00;102438.00000000001;;;9.08;100.0
22775;BME280;11554;51.106;3.684;2023-04-19T05:15:00;102444.58;;;9.12;100.0
22775;BME280;11554;51.106;3.684;2023-04-19T05:20:00;102441.36000000002;;;9.17;100.0
22775;BME280;11554;51.106;3.684;2023-04-19T05:25:00;102436.15;;;9.21;100.0
22775;BME280;11554;51.106;3.684;2023-04-19T05:30:00;102437.3;;;9.28;100.0
22775;BME280;11554;51.106;3.684;2023-04-19T05:35:00;102454.15000000001;;;9.38;100.0
22775;BME280;11554;51.106;3.684;2023-04-19T05:40:00;102458.27999999998;;;9.49;100.0
22775;BME280;11554;51.106;3.684;2023-04-19T05:45:00;102459.71999999999;;;9.61;100.0
22775;BME280;11554;51.106;3.684;2023-04-19T05:50:00;102464.77;;;9.75;100.0
22775;BME280;11554;51.106;3.684;2023-04-19T05:55:00;102468.2;;;9.98;100.0
22775;BME280;11554;51.106;3.684;2023-04-19T06:00:00;102466.98;;;10.09;100.0
22775;BME280;11554;51.106;3.684;2023-04-19T06:05:00;102474.0;;;10.01;100.0
22775;BME280;11554;51.106;3.684;2023-04-19T06:10:00;102471.13999999998;;;10.16;100.0
22775;BME280;11554;51.106;3.684;2023-04-19T06:15:00;102468.79;;;10.88;100.0
22775;BME280;11554;51.106;3.684;2023-04-19T06:20:00;102470.31;;;11.32;99.26
22775;BME280;11554;51.106;3.684;2023-04-19T06:25:00;102473.65;;;11.37;97.99
22775;BME280;11554;51.106;3.684;2023-04-19T06:30:00;102476.50000000001;;;11.41;96.75
22775;BME280;11554;51.106;3.684;2023-04-19T06:35:00;102474.72;;;11.58;96.64
22775;BME280;11554;51.106;3.684;2023-04-19T06:40:00;102476.53;;;11.96;96.08
22775;BME280;11554;51.106;3.684;2023-04-19T06:45:00;102470.61000000002;;;11.82;94.87
22775;BME280;11554;51.106;3.684;2023-04-19T06:50:00;102465.42;;;11.54;95.85
22775;BME280;11554;51.106;3.684;2023-04-19T06:55:00;102459.26999999999;;;11.70;95.98
22775;BME280;11554;51.106;3.684;2023-04-19T07:00:00;102460.06;;;11.57;96.12
22775;BME280;11554;51.106;3.684;2023-04-19T07:05:00;102462.5;;;11.66;95.72
22775;BME280;11554;51.106;3.684;2023-04-19T07:10:00;102458.34;;;11.49;95.72
22775;BME280;11554;51.106;3.684;2023-04-19T07:15:00;102456.81;;;11.71;95.05
22775;BME280;11554;51.106;3.684;2023-04-19T07:20:00;102457.73999999999;;;11.92;94.84
22775;BME280;11554;51.106;3.684;2023-04-19T07:25:00;102454.85;;;11.91;94.13
22775;BME280;11554;51.106;3.684;2023-04-19T07:30:00;102448.62000000001;;;12.24;94.23
22775;BME280;11554;51.106;3.684;2023-04-19T07:35:00;102437.83;;;13.21;89.51
22775;BME280;11554;51.106;3.684;2023-04-19T07:40:00;102444.3;;;13.14;88.67
22775;BME280;11554;51.106;3.684;2023-04-19T07:45:00;102454.31000000001;;;13.49;87.98
22775;BME280;11554;51.106;3.684;2023-04-19T07:50:00;102452.59000000001;;;14.00;86.73
22775;BME280;11554;51.106;3.684;2023-04-19T07:55:00;102457.54;;;13.76;86.54
22775;BME280;11554;51.106;3.684;2023-04-19T08:00:00;102449.34000000001;;;14.04;85.74
22775;BME280;11554;51.106;3.684;2023-04-19T08:05:00;102450.56;;;14.71;85.21
22775;BME280;11554;51.106;3.684;2023-04-19T08:10:00;102447.89000000001;;;14.84;85.2
22775;BME280;11554;51.106;3.684;2023-04-19T08:15:00;102452.14000000001;;;15.45;82.07
22775;BME280;11554;51.106;3.684;2023-04-19T08:20:00;102453.12;;;14.92;81.99
22775;BME280;11554;51.106;3.684;2023-04-19T08:25:00;102444.81000000001;;;15.19;82.79
22775;BME280;11554;51.106;3.684;2023-04-19T08:30:00;102440.77;;;15.17;81.62
22775;BME280;11554;51.106;3.684;2023-04-19T08:35:00;102447.38;;;15.25;82.09
22775;BME280;11554;51.106;3.684;2023-04-19T08:40:00;102449.48999999999;;;15.03;81.41
22775;BME280;11554;51.106;3.684;2023-04-19T08:45:00;102451.98000000001;;;15.21;80.26
22775;BME280;11554;51.106;3.684;2023-04-19T08:50:00;102447.53;;;15.60;79.06
22775;BME280;11554;51.106;3.684;2023-04-19T08:55:00;102453.53;;;15.32;78.58
22775;BME280;11554;51.106;3.684;2023-04-19T09:00:00;102446.0;;;15.73;78.65
22775;BME280;11554;51.106;3.684;2023-04-19T09:05:00;102455.31000000001;;;15.79;78.44
22775;BME280;11554;51.106;3.684;2023-04-19T09:10:03;102445.15;;;15.84;76.64
22775;BME280;11554;51.106;3.684;2023-04-19T09:15:00;102443.43;;;16.19;77.24
22775;BME280;11554;51.106;3.684;2023-04-19T09:20:00;102431.90999999999;;;16.75;76.55
22775;BME280;11554;51.106;3.684;2023-04-19T09:25:00;102427.23000000001;;;17.13;75.15
22775;BME280;11554;51.106;3.684;2023-04-19T09:30:00;102427.69;;;16.83;73.52
22775;BME280;11554;51.106;3.684;2023-04-19T09:35:00;102422.31;;;16.56;74.16
22775;BME280;11554;51.106;3.684;2023-04-19T09:40:00;102418.75;;;16.82;72.79
22775;BME280;11554;51.106;3.684;2023-04-19T09:45:00;102422.90000000001;;;16.38;74.53
22775;BME280;11554;51.106;3.684;2023-04-19T09:50:02;102410.11000000002;;;16.95;72.58
22775;BME280;11554;51.106;3.684;2023-04-19T09:55:00;102413.79;;;16.83;70.79
22775;BME280;11554;51.106;3.684;2023-04-19T10:00:00;102411.21;;;17.23;71.89
22775;BME280;11554;51.106;3.684;2023-04-19T10:05:00;102406.65;;;17.16;70.64
22775;BME280;11554;51.106;3.684;2023-04-19T10:10:00;102398.38;;;17.60;71.74
22775;BME280;11554;51.106;3.684;2023-04-19T10:15:00;102393.87000000001;;;17.67;69.46
22775;BME280;11554;51.106;3.684;2023-04-19T10:20:01;102382.56;;;18.44;70.41
22775;BME280;11554;51.106;3.684;2023-04-19T10:25:10;102380.3;;;18.79;67.05
22775;BME280;11554;51.106;3.684;2023-04-19T10:30:00;102380.90999999999;;;16.82;68.37
22775;BME280;11554;51.106;3.684;2023-04-19T10:35:00;102370.94;;;17.90;68.99
22775;BME280;11554;51.106;3.684;2023-04-19T10:40:00;102370.39;;;18.06;67.49
22775;BME280;11554;51.106;3.684;2023-04-19T10:50:02;102363.23999999999;;;18.42;66.58
22775;BME280;11554;51.106;3.684;2023-04-19T10:55:00;102353.7;;;18.05;65.78
22775;BME280;11554;51.106;3.684;2023-04-19T11:05:00;102350.19;;;18.36;66.24
22775;BME280;11554;51.106;3.684;2023-04-19T11:10:00;102340.20000000001;;;18.45;66.19
22775;BME280;11554;51.106;3.684;2023-04-19T11:15:00;102340.83;;;18.97;65.99
22775;BME280;11554;51.106;3.684;2023-04-19T11:20:01;102340.22;;;18.38;64.48
22775;BME280;11554;51.106;3.684;2023-04-19T11:25:03;102328.17;;;18.41;66.03
22775;BME280;11554;51.106;3.684;2023-04-19T11:30:01;102333.88;;;19.50;62.85
22775;BME280;11554;51.106;3.684;2023-04-19T11:35:03;102314.72;;;20.29;62.64
22775;BME280;11554;51.106;3.684;2023-04-19T11:40:00;102319.84;;;19.11;62.11
22775;BME280;11554;51.106;3.684;2023-04-19T11:45:00;102311.56999999999;;;19.79;60.93
22775;BME280;11554;51.106;3.684;2023-04-19T12:00:01;102306.72;;;19.65;60.54
22775;BME280;11554;51.106;3.684;2023-04-19T12:05:05;102306.0;;;19.17;60.46
22775;BME280;11554;51.106;3.684;2023-04-19T12:10:06;102296.19;;;18.95;61.71
22775;BME280;11554;51.106;3.684;2023-04-19T12:15:00;102297.89;;;19.28;59.3
22775;BME280;11554;51.106;3.684;2023-04-19T12:20:00;102286.33;;;19.72;58.62
22775;BME280;11554;51.106;3.684;2023-04-19T12:25:00;102293.17;;;19.21;56.96
22775;BME280;11554;51.106;3.684;2023-04-19T12:30:00;102279.63;;;19.11;55.11
22775;BME280;11554;51.106;3.684;2023-04-19T12:35:00;102282.62;;;19.43;54.42
22775;BME280;11554;51.106;3.684;2023-04-19T12:40:00;102285.97;;;19.08;51.93
22775;BME280;11554;51.106;3.684;2023-04-19T12:45:00;102278.97;;;19.04;52.85
22775;BME280;11554;51.106;3.684;2023-04-19T12:50:00;102268.9;;;19.38;53.46
22775;BME280;11554;51.106;3.684;2023-04-19T12:55:00;102264.23;;;19.11;49.36
22775;BME280;11554;51.106;3.684;2023-04-19T13:00:00;102250.81;;;19.15;51.65
22775;BME280;11554;51.106;3.684;2023-04-19T13:05:00;102256.76;;;19.29;49.71
22775;BME280;11554;51.106;3.684;2023-04-19T13:10:00;102249.34;;;19.18;50.94
22775;BME280;11554;51.106;3.684;2023-04-19T13:15:00;102246.28;;;18.87;51.46
22775;BME280;11554;51.106;3.684;2023-04-19T13:20:00;102237.51999999999;;;19.14;51.43
22775;BME280;11554;51.106;3.684;2023-04-19T13:25:00;102236.19;;;18.81;48.98
22775;BME280;11554;51.106;3.684;2023-04-19T13:30:00;102241.92;;;18.99;50.8
22775;BME280;11554;51.106;3.684;2023-04-19T13:35:00;102241.88;;;18.63;50.25
22775;BME280;11554;51.106;3.684;2023-04-19T13:40:00;102242.48999999999;;;18.75;48.64
22775;BME280;11554;51.106;3.684;2023-04-19T13:45:00;102228.64;;;18.41;48.06
22775;BME280;11554;51.106;3.684;2023-04-19T13:50:00;102232.62;;;17.87;48.18
22775;BME280;11554;51.106;3.684;2023-04-19T13:55:00;102224.17;;;17.85;47.29
22775;BME280;11554;51.106;3.684;2023-04-19T14:00:00;102218.36;;;18.09;46.92
22775;BME280;11554;51.106;3.684;2023-04-19T14:05:00;102210.70999999999;;;17.97;45.16
22775;BME280;11554;51.106;3.684;2023-04-19T14:10:00;102207.2;;;17.83;46.21
22775;BME280;11554;51.106;3.684;2023-04-19T14:15:00;102199.36;;;17.98;46.49
22775;BME280;11554;51.106;3.684;2023-04-19T14:20:00;102200.41;;;18.11;45.4
22775;BME280;11554;51.106;3.684;2023-04-19T14:25:00;102193.68;;;18.28;46.29
22775;BME280;11554;51.106;3.684;2023-04-19T14:30:00;102186.28;;;17.93;45.79
22775;BME280;11554;51.106;3.684;2023-04-19T14:35:00;102183.59;;;17.63;42.63
22775;BME280;11554;51.106;3.684;2023-04-19T14:40:00;102191.31;;;17.43;43.41
22775;BME280;11554;51.106;3.684;2023-04-19T14:45:00;102182.39;;;17.98;44.45
22775;BME280;11554;51.106;3.684;2023-04-19T14:50:00;102173.58;;;17.77;46.81
22775;BME280;11554;51.106;3.684;2023-04-19T14:55:00;102169.73000000001;;;17.95;45.75
22775;BME280;11554;51.106;3.684;2023-04-19T15:00:00;102167.48999999999;;;18.06;44.47
22775;BME280;11554;51.106;3.684;2023-04-19T15:05:00;102168.67;;;17.98;43.66
22775;BME280;11554;51.106;3.684;2023-04-19T15:10:00;102160.36;;;18.23;44.39
22775;BME280;11554;51.106;3.684;2023-04-19T15:15:00;102163.14;;;17.81;43.79
22775;BME280;11554;51.106;3.684;2023-04-19T15:20:00;102173.13;;;17.73;44.48
22775;BME280;11554;51.106;3.684;2023-04-19T15:25:00;102160.26000000001;;;17.24;44.81
22775;BME280;11554;51.106;3.684;2023-04-19T15:30:00;102153.68999999999;;;17.34;44.95
22775;BME280;11554;51.106;3.684;2023-04-19T15:35:00;102144.55;;;17.15;45.42
22775;BME280;11554;51.106;3.684;2023-04-19T15:40:00;102155.75;;;17.39;45.46
22775;BME280;11554;51.106;3.684;2023-04-19T15:45:00;102151.89;;;17.06;45.05
22775;BME280;11554;51.106;3.684;2023-04-19T15:50:00;102161.35;;;17.00;44.17
22775;BME280;11554;51.106;3.684;2023-04-19T15:55:00;102145.47;;;16.90;44.1
22775;BME280;11554;51.106;3.684;2023-04-19T16:00:00;102135.72;;;17.36;44.4
22775;BME280;11554;51.106;3.684;2023-04-19T16:05:00;102144.15000000001;;;16.94;42.56
22775;BME280;11554;51.106;3.684;2023-04-19T16:10:00;102137.34;;;16.92;43.71
22775;BME280;11554;51.106;3.684;2023-04-19T16:15:00;102137.71;;;16.98;43.66
22775;BME280;11554;51.106;3.684;2023-04-19T16:20:00;102132.79;;;16.79;44.28
22775;BME280;11554;51.106;3.684;2023-04-19T16:25:00;102130.62999999999;;;16.89;44.92
22775;BME280;11554;51.106;3.684;2023-04-19T16:30:00;102142.48999999999;;;16.61;43.49
22775;BME280;11554;51.106;3.684;2023-04-19T16:35:00;102146.74;;;16.63;44.38
22775;BME280;11554;51.106;3.684;2023-04-19T16:40:01;102139.84;;;16.44;44.15
22775;BME280;11554;51.106;3.684;2023-04-19T16:45:00;102143.97;;;16.52;45.88
22775;BME280;11554;51.106;3.684;2023-04-19T16:50:00;102137.2;;;16.54;45.08
22775;BME280;11554;51.106;3.684;2023-04-19T16:55:00;102134.16;;;16.60;46.1
22775;BME280;11554;51.106;3.684;2023-04-19T17:00:00;102137.11;;;16.02;44.21
22775;BME280;11554;51.106;3.684;2023-04-19T17:05:00;102126.14;;;15.74;45.03
22775;BME280;11554;51.106;3.684;2023-04-19T17:10:00;102127.03;;;15.55;45.14
22775;BME280;11554;51.106;3.684;2023-04-19T17:15:00;102125.07;;;15.26;44.92
22775;BME280;11554;51.106;3.684;2023-04-19T17:20:00;102128.19;;;15.07;45.63
22775;BME280;11554;51.106;3.684;2023-04-19T17:25:00;102119.28;;;14.96;45.7
22775;BME280;11554;51.106;3.684;2023-04-19T17:30:00;102112.98000000001;;;14.83;46.54
22775;BME280;11554;51.106;3.684;2023-04-19T17:35:00;102107.53;;;14.57;46.25
22775;BME280;11554;51.106;3.684;2023-04-19T17:40:00;102120.65;;;14.34;45.85
22775;BME280;11554;51.106;3.684;2023-04-19T17:45:00;102116.65000000001;;;14.12;46.09
22775;BME280;11554;51.106;3.684;2023-04-19T17:50:03;102116.12;;;13.95;47.0
22775;BME280;11554;51.106;3.684;2023-04-19T17:55:00;102110.53;;;13.75;47.61
22775;BME280;11554;51.106;3.684;2023-04-19T18:00:00;102111.36;;;13.66;47.31
22775;BME280;11554;51.106;3.684;2023-04-19T18:05:00;102110.1;;;13.50;47.05
22775;BME280;11554;51.106;3.684;2023-04-19T18:10:00;102113.13;;;13.35;47.72
22775;BME280;11554;51.106;3.684;2023-04-19T18:15:00;102114.18;;;13.22;47.64
22775;BME280;11554;51.106;3.684;2023-04-19T18:20:00;102117.97;;;13.11;47.1
22775;BME280;11554;51.106;3.684;2023-04-19T18:25:00;102117.95;;;12.97;47.53
22775;BME280;11554;51.106;3.684;2023-04-19T18:30:00;102117.8;;;12.84;48.12
22775;BME280;11554;51.106;3.684;2023-04-19T18:35:00;102119.6;;;12.73;48.7
22775;BME280;11554;51.106;3.684;2023-04-19T18:40:00;102121.37;;;12.61;49.08
22775;BME280;11554;51.106;3.684;2023-04-19T18:45:00;102132.17;;;12.49;49.01
22775;BME280;11554;51.106;3.684;2023-04-19T18:50:00;102126.95;;;12.42;49.33
22775;BME280;11554;51.106;3.684;2023-04-19T18:55:00;102138.86;;;12.30;49.82
22775;BME280;11554;51.106;3.684;2023-04-19T19:00:00;102137.23;;;12.20;50.19
22775;BME280;11554;51.106;3.684;2023-04-19T19:05:00;102144.2;;;11.98;51.19
22775;BME280;11554;51.106;3.684;2023-04-19T19:10:00;102148.99;;;11.91;51.5
22775;BME280;11554;51.106;3.684;2023-04-19T19:15:00;102150.08;;;11.85;52.04
22775;BME280;11554;51.106;3.684;2023-04-19T19:20:00;102152.34;;;11.85;52.42
22775;BME280;11554;51.106;3.684;2023-04-19T19:25:00;102149.58;;;11.64;53.21
22775;BME280;11554;51.106;3.684;2023-04-19T19:30:00;102153.16;;;11.58;53.75
22775;BME280;11554;51.106;3.684;2023-04-19T19:35:00;102150.09;;;11.48;54.29
22775;BME280;11554;51.106;3.684;2023-04-19T19:40:00;102153.42000000001;;;11.48;54.47
22775;BME280;11554;51.106;3.684;2023-04-19T19:45:00;102160.22;;;11.47;54.57
22775;BME280;11554;51.106;3.684;2023-04-19T19:50:00;102160.16;;;11.36;54.89
22775;BME280;11554;51.106;3.684;2023-04-19T19:55:00;102171.37;;;11.30;55.23
22775;BME280;11554;51.106;3.684;2023-04-19T20:00:00;102172.88;;;11.27;55.47
22775;BME280;11554;51.106;3.684;2023-04-19T20:05:00;102177.03;;;11.22;55.55
22775;BME280;11554;51.106;3.684;2023-04-19T20:10:00;102185.35;;;11.22;55.9
22775;BME280;11554;51.106;3.684;2023-04-19T20:15:00;102189.67;;;11.03;56.34
22775;BME280;11554;51.106;3.684;2023-04-19T20:20:00;102185.29999999999;;;10.92;56.87
22775;BME280;11554;51.106;3.684;2023-04-19T20:25:00;102188.0;;;10.66;57.89
22775;BME280;11554;51.106;3.684;2023-04-19T20:30:00;102184.27;;;10.52;58.19
22775;BME280;11554;51.106;3.684;2023-04-19T20:35:00;102186.97;;;10.45;58.74
22775;BME280;11554;51.106;3.684;2023-04-19T20:40:00;102186.92;;;10.40;59.07
22775;BME280;11554;51.106;3.684;2023-04-19T20:45:00;102189.47;;;10.31;59.09
22775;BME280;11554;51.106;3.684;2023-04-19T20:50:00;102179.67;;;10.26;59.21
22775;BME280;11554;51.106;3.684;2023-04-19T20:55:00;102181.11;;;10.09;60.01
22775;BME280;11554;51.106;3.684;2023-04-19T21:00:00;102177.78;;;9.88;60.91
22775;BME280;11554;51.106;3.684;2023-04-19T21:05:00;102179.0;;;9.69;61.63
22775;BME280;11554;51.106;3.684;2023-04-19T21:10:00;102187.44;;;9.37;63.96
22775;BME280;11554;51.106;3.684;2023-04-19T21:15:00;102187.87;;;9.12;65.99
22775;BME280;11554;51.106;3.684;2023-04-19T21:20:00;102191.24;;;8.93;67.2
22775;BME280;11554;51.106;3.684;2023-04-19T21:25:00;102192.52;;;8.75;68.09
22775;BME280;11554;51.106;3.684;2023-04-19T21:30:00;102192.19;;;8.57;68.73
22775;BME280;11554;51.106;3.684;2023-04-19T21:35:00;102188.87;;;8.43;70.14
22775;BME280;11554;51.106;3.684;2023-04-19T21:40:00;102188.61;;;8.31;71.04
22775;BME280;11554;51.106;3.684;2023-04-19T21:45:00;102191.13;;;8.22;72.06
22775;BME280;11554;51.106;3.684;2023-04-19T21:50:00;102192.35;;;8.16;72.56
22775;BME280;11554;51.106;3.684;2023-04-19T21:55:00;102192.1;;;8.08;74.16
22775;BME280;11554;51.106;3.684;2023-04-19T22:00:00;102190.21;;;7.93;75.04
22775;BME280;11554;51.106;3.684;2023-04-19T22:05:00;102192.38;;;7.87;76.48
22775;BME280;11554;51.106;3.684;2023-04-19T22:10:00;102193.47;;;7.77;77.62
22775;BME280;11554;51.106;3.684;2023-04-19T22:15:00;102191.09999999999;;;7.73;78.68
22775;BME280;11554;51.106;3.684;2023-04-19T22:20:00;102196.48999999999;;;7.66;79.78
22775;BME280;11554;51.106;3.684;2023-04-19T22:25:00;102195.68000000001;;;7.60;80.71
22775;BME280;11554;51.106;3.684;2023-04-19T22:30:00;102192.96;;;7.49;81.56
22775;BME280;11554;51.106;3.684;2023-04-19T22:35:00;102196.8;;;7.45;80.44
22775;BME280;11554;51.106;3.684;2023-04-19T22:40:00;102195.70999999999;;;7.46;79.84
22775;BME280;11554;51.106;3.684;2023-04-19T22:45:00;102200.7;;;7.29;80.07
22775;BME280;11554;51.106;3.684;2023-04-19T22:50:00;102202.4;;;7.22;80.72
22775;BME280;11554;51.106;3.684;2023-04-19T22:55:00;102198.28;;;7.11;80.63
22775;BME280;11554;51.106;3.684;2023-04-19T23:00:00;102197.02;;;7.29;74.18
22775;BME280;11554;51.106;3.684;2023-04-19T23:05:00;102192.66;;;7.70;69.67
22775;BME280;11554;51.106;3.684;2023-04-19T23:10:00;102188.0;;;7.64;69.56
22775;BME280;11554;51.106;3.684;2023-04-19T23:15:00;102187.67;;;7.32;72.47
22775;BME280;11554;51.106;3.684;2023-04-19T23:20:00;102190.89;;;7.20;74.05
22775;BME280;11554;51.106;3.684;2023-04-19T23:25:00;102190.09999999999;;;7.19;71.77
22775;BME280;11554;51.106;3.684;2023-04-19T23:30:00;102187.91;;;7.40;68.65
22775;BME280;11554;51.106;3.684;2023-04-19T23:35:00;102190.23999999999;;;7.80;65.5
22775;BME280;11554;51.106;3.684;2023-04-19T23:40:00;102187.19;;;7.88;64.31
22775;BME280;11554;51.106;3.684;2023-04-19T23:45:00;102181.72;;;7.82;63.91
22775;BME280;11554;51.106;3.684;2023-04-19T23:50:00;102179.03;;;7.78;63.67
22775;BME280;11554;51.106;3.684;2023-04-19T23:55:00;102177.45;;;7.77;63.5
